sensor_id;sensor_type;location;lat;lon;timestamp;temperature;humidity
4435;DHT22;46552;52.150;8.428;2023-06-22T00:11:07;20.30;99.90
4435;DHT22;46552;52.150;8.428;2023-06-22T00:20:59;20.40;99.90
4435;DHT22;46552;52.150;8.428;2023-06-22T00:28:23;20.20;99.90
4435;DHT22;46552;52.150;8.428;2023-06-22T00:30:51;20.10;99.90
4435;DHT22;46552;52.150;8.428;2023-06-22T00:45:38;20.00;99.90
4435;DHT22;46552;52.150;8.428;2023-06-22T00:48:06;20.10;99.90
4435;DHT22;46552;52.150;8.428;2023-06-22T00:53:03;20.00;99.90
4435;DHT22;46552;52.150;8.428;2023-06-22T01:03:02;20.00;99.90
4435;DHT22;46552;52.150;8.428;2023-06-22T01:05:31;19.90;99.90
4435;DHT22;46552;52.150;8.428;2023-06-22T01:08:18;19.90;99.90
4435;DHT22;46552;52.150;8.428;2023-06-22T01:10:51;19.80;99.90
4435;DHT22;46552;52.150;8.428;2023-06-22T01:13:31;19.80;99.90
4435;DHT22;46552;52.150;8.428;2023-06-22T01:16:03;19.80;99.90
4435;DHT22;46552;52.150;8.428;2023-06-22T01:18:36;19.80;99.90
4435;DHT22;46552;52.150;8.428;2023-06-22T01:21:06;19.80;99.90
4435;DHT22;46552;52.150;8.428;2023-06-22T01:23:46;19.80;99.90
4435;DHT22;46552;52.150;8.428;2023-06-22T01:26:37;19.70;99.90
4435;DHT22;46552;52.150;8.428;2023-06-22T01:29:08;19.90;99.90
4435;DHT22;46552;52.150;8.428;2023-06-22T01:31:38;19.90;99.90
4435;DHT22;46552;52.150;8.428;2023-06-22T01:39:02;19.80;99.90
4435;DHT22;46552;52.150;8.428;2023-06-22T01:41:34;19.70;99.90
4435;DHT22;46552;52.150;8.428;2023-06-22T01:44:03;19.70;99.90
4435;DHT22;46552;52.150;8.428;2023-06-22T01:46:33;19.70;99.90
4435;DHT22;46552;52.150;8.428;2023-06-22T01:49:02;19.60;99.90
4435;DHT22;46552;52.150;8.428;2023-06-22T01:58:59;19.60;99.90
4435;DHT22;46552;52.150;8.428;2023-06-22T02:01:34;19.60;99.90
4435;DHT22;46552;52.150;8.428;2023-06-22T02:04:05;19.60;99.90
4435;DHT22;46552;52.150;8.428;2023-06-22T02:06:36;19.60;99.90
4435;DHT22;46552;52.150;8.428;2023-06-22T02:09:08;19.60;99.90
4435;DHT22;46552;52.150;8.428;2023-06-22T02:11:37;19.60;99.90
4435;DHT22;46552;52.150;8.428;2023-06-22T02:14:05;19.60;99.90
4435;DHT22;46552;52.150;8.428;2023-06-22T02:16:35;19.60;99.90
4435;DHT22;46552;52.150;8.428;2023-06-22T02:33:57;19.60;99.90
4435;DHT22;46552;52.150;8.428;2023-06-22T02:39:07;19.50;99.90
4435;DHT22;46552;52.150;8.428;2023-06-22T02:48:58;19.50;99.90
4435;DHT22;46552;52.150;8.428;2023-06-22T03:06:17;19.40;99.90
4435;DHT22;46552;52.150;8.428;2023-06-22T03:23:35;19.30;99.90
4435;DHT22;46552;52.150;8.428;2023-06-22T03:30:58;19.20;99.90
4435;DHT22;46552;52.150;8.428;2023-06-22T03:40:50;19.20;99.90
4435;DHT22;46552;52.150;8.428;2023-06-22T03:43:17;19.10;99.90
4435;DHT22;46552;52.150;8.428;2023-06-22T03:55:34;19.20;99.90
4435;DHT22;46552;52.150;8.428;2023-06-22T04:15:17;19.20;99.90
4435;DHT22;46552;52.150;8.428;2023-06-22T04:25:07;19.20;99.90
4435;DHT22;46552;52.150;8.428;2023-06-22T04:30:03;19.10;99.90
4435;DHT22;46552;52.150;8.428;2023-06-22T04:32:31;19.20;99.90
4435;DHT22;46552;52.150;8.428;2023-06-22T04:49:46;19.40;99.90
4435;DHT22;46552;52.150;8.428;2023-06-22T04:52:14;19.50;99.90
4435;DHT22;46552;52.150;8.428;2023-06-22T04:59:42;19.70;99.90
4435;DHT22;46552;52.150;8.428;2023-06-22T05:07:07;20.00;99.90
4435;DHT22;46552;52.150;8.428;2023-06-22T05:09:35;20.10;99.90
4435;DHT22;46552;52.150;8.428;2023-06-22T05:22:00;20.50;99.90
4435;DHT22;46552;52.150;8.428;2023-06-22T05:24:29;20.50;99.90
4435;DHT22;46552;52.150;8.428;2023-06-22T05:29:24;20.50;99.90
4435;DHT22;46552;52.150;8.428;2023-06-22T05:31:52;20.60;99.90
4435;DHT22;46552;52.150;8.428;2023-06-22T05:34:20;20.60;99.90
4435;DHT22;46552;52.150;8.428;2023-06-22T05:39:14;20.80;99.90
4435;DHT22;46552;52.150;8.428;2023-06-22T05:41:44;20.80;99.90
4435;DHT22;46552;52.150;8.428;2023-06-22T05:46:41;21.00;99.90
4435;DHT22;46552;52.150;8.428;2023-06-22T05:54:04;21.10;99.90
4435;DHT22;46552;52.150;8.428;2023-06-22T05:59:01;21.30;99.90
4435;DHT22;46552;52.150;8.428;2023-06-22T06:08:54;21.70;99.90
4435;DHT22;46552;52.150;8.428;2023-06-22T06:16:17;22.00;99.90
4435;DHT22;46552;52.150;8.428;2023-06-22T06:23:39;22.00;99.90
4435;DHT22;46552;52.150;8.428;2023-06-22T06:26:07;22.20;99.90
4435;DHT22;46552;52.150;8.428;2023-06-22T06:33:34;22.40;99.90
4435;DHT22;46552;52.150;8.428;2023-06-22T06:36:01;22.60;99.90
4435;DHT22;46552;52.150;8.428;2023-06-22T06:38:29;22.50;99.90
4435;DHT22;46552;52.150;8.428;2023-06-22T06:43:23;22.80;99.90
4435;DHT22;46552;52.150;8.428;2023-06-22T06:45:51;22.90;99.90
4435;DHT22;46552;52.150;8.428;2023-06-22T06:50:47;23.10;99.90
4435;DHT22;46552;52.150;8.428;2023-06-22T06:55:41;23.20;99.90
4435;DHT22;46552;52.150;8.428;2023-06-22T07:03:06;23.30;99.90
4435;DHT22;46552;52.150;8.428;2023-06-22T07:05:34;23.30;99.90
4435;DHT22;46552;52.150;8.428;2023-06-22T07:08:04;23.10;99.90
4435;DHT22;46552;52.150;8.428;2023-06-22T07:10:31;23.00;99.90
4435;DHT22;46552;52.150;8.428;2023-06-22T07:12:59;23.00;99.90
4435;DHT22;46552;52.150;8.428;2023-06-22T07:15:26;23.00;99.90
4435;DHT22;46552;52.150;8.428;2023-06-22T07:20:21;23.40;99.90
4435;DHT22;46552;52.150;8.428;2023-06-22T07:22:49;23.30;99.90
4435;DHT22;46552;52.150;8.428;2023-06-22T07:25:18;23.10;99.90
4435;DHT22;46552;52.150;8.428;2023-06-22T07:27:46;23.10;99.90
4435;DHT22;46552;52.150;8.428;2023-06-22T07:30:16;23.00;99.90
4435;DHT22;46552;52.150;8.428;2023-06-22T07:35:10;23.40;99.90
4435;DHT22;46552;52.150;8.428;2023-06-22T07:37:37;23.20;99.90
4435;DHT22;46552;52.150;8.428;2023-06-22T07:40:06;23.20;99.90
4435;DHT22;46552;52.150;8.428;2023-06-22T07:42:35;23.30;99.90
4435;DHT22;46552;52.150;8.428;2023-06-22T07:45:03;23.30;99.90
4435;DHT22;46552;52.150;8.428;2023-06-22T07:47:31;23.30;99.90
4435;DHT22;46552;52.150;8.428;2023-06-22T07:50:01;23.20;99.90
4435;DHT22;46552;52.150;8.428;2023-06-22T07:52:29;23.30;99.90
4435;DHT22;46552;52.150;8.428;2023-06-22T07:54:56;23.30;99.90
4435;DHT22;46552;52.150;8.428;2023-06-22T07:57:24;23.40;99.90
4435;DHT22;46552;52.150;8.428;2023-06-22T08:00:00;23.40;99.90
4435;DHT22;46552;52.150;8.428;2023-06-22T08:02:29;23.40;99.90
4435;DHT22;46552;52.150;8.428;2023-06-22T08:04:56;23.50;99.90
4435;DHT22;46552;52.150;8.428;2023-06-22T08:07:24;23.40;99.90
4435;DHT22;46552;52.150;8.428;2023-06-22T08:09:51;23.70;99.90
4435;DHT22;46552;52.150;8.428;2023-06-22T08:12:19;23.60;99.90
4435;DHT22;46552;52.150;8.428;2023-06-22T08:14:47;23.60;99.90
4435;DHT22;46552;52.150;8.428;2023-06-22T08:17:15;23.80;99.90
4435;DHT22;46552;52.150;8.428;2023-06-22T08:19:42;23.90;99.90
4435;DHT22;46552;52.150;8.428;2023-06-22T08:22:09;24.10;99.90
4435;DHT22;46552;52.150;8.428;2023-06-22T08:24:38;24.20;99.90
4435;DHT22;46552;52.150;8.428;2023-06-22T08:27:07;24.30;99.90
4435;DHT22;46552;52.150;8.428;2023-06-22T08:29:36;24.30;99.90
4435;DHT22;46552;52.150;8.428;2023-06-22T08:32:04;24.50;99.90
4435;DHT22;46552;52.150;8.428;2023-06-22T08:34:34;24.70;99.90
4435;DHT22;46552;52.150;8.428;2023-06-22T08:37:01;24.80;99.90
4435;DHT22;46552;52.150;8.428;2023-06-22T08:39:31;25.10;99.90
4435;DHT22;46552;52.150;8.428;2023-06-22T08:42:00;25.20;99.90
4435;DHT22;46552;52.150;8.428;2023-06-22T08:44:27;25.40;99.90
4435;DHT22;46552;52.150;8.428;2023-06-22T08:49:21;25.60;99.90
4435;DHT22;46552;52.150;8.428;2023-06-22T08:51:50;25.70;99.90
4435;DHT22;46552;52.150;8.428;2023-06-22T08:57:11;25.90;99.90
4435;DHT22;46552;52.150;8.428;2023-06-22T08:59:39;26.00;99.90
4435;DHT22;46552;52.150;8.428;2023-06-22T09:02:06;26.10;99.90
4435;DHT22;46552;52.150;8.428;2023-06-22T09:04:34;26.20;99.90
4435;DHT22;46552;52.150;8.428;2023-06-22T09:07:03;26.30;99.90
4435;DHT22;46552;52.150;8.428;2023-06-22T09:09:31;26.40;99.90
4435;DHT22;46552;52.150;8.428;2023-06-22T09:11:58;26.80;99.90
4435;DHT22;46552;52.150;8.428;2023-06-22T09:14:25;26.80;99.90
4435;DHT22;46552;52.150;8.428;2023-06-22T09:19:20;27.30;99.90
4435;DHT22;46552;52.150;8.428;2023-06-22T09:21:48;27.50;99.90
4435;DHT22;46552;52.150;8.428;2023-06-22T09:24:16;27.80;99.90
4435;DHT22;46552;52.150;8.428;2023-06-22T09:26:44;27.90;99.90
4435;DHT22;46552;52.150;8.428;2023-06-22T09:29:11;28.00;99.90
4435;DHT22;46552;52.150;8.428;2023-06-22T09:31:38;30.00;99.90
4435;DHT22;46552;52.150;8.428;2023-06-22T09:34:05;28.30;99.90
4435;DHT22;46552;52.150;8.428;2023-06-22T09:36:32;28.50;99.90
4435;DHT22;46552;52.150;8.428;2023-06-22T09:41:33;28.40;99.90
4435;DHT22;46552;52.150;8.428;2023-06-22T09:46:28;28.80;99.90
4435;DHT22;46552;52.150;8.428;2023-06-22T09:48:55;28.80;99.90
4435;DHT22;46552;52.150;8.428;2023-06-22T09:51:22;28.80;99.90
4435;DHT22;46552;52.150;8.428;2023-06-22T09:56:17;28.90;99.90
4435;DHT22;46552;52.150;8.428;2023-06-22T09:58:46;29.00;99.90
4435;DHT22;46552;52.150;8.428;2023-06-22T10:01:15;29.10;99.90
4435;DHT22;46552;52.150;8.428;2023-06-22T10:06:10;28.90;99.90
4435;DHT22;46552;52.150;8.428;2023-06-22T10:08:37;28.80;99.90
4435;DHT22;46552;52.150;8.428;2023-06-22T10:11:04;29.00;99.90
4435;DHT22;46552;52.150;8.428;2023-06-22T10:13:32;29.00;99.90
4435;DHT22;46552;52.150;8.428;2023-06-22T10:16:01;29.20;99.90
4435;DHT22;46552;52.150;8.428;2023-06-22T10:18:28;29.20;99.90
4435;DHT22;46552;52.150;8.428;2023-06-22T10:20:56;29.40;99.90
4435;DHT22;46552;52.150;8.428;2023-06-22T10:28:19;30.40;99.90
4435;DHT22;46552;52.150;8.428;2023-06-22T10:30:46;30.50;99.90
4435;DHT22;46552;52.150;8.428;2023-06-22T10:33:15;31.00;97.70
4435;DHT22;46552;52.150;8.428;2023-06-22T10:35:42;30.90;99.90
4435;DHT22;46552;52.150;8.428;2023-06-22T10:38:09;31.50;99.90
4435;DHT22;46552;52.150;8.428;2023-06-22T10:40:36;31.30;99.40
4435;DHT22;46552;52.150;8.428;2023-06-22T10:43:05;31.30;99.90
4435;DHT22;46552;52.150;8.428;2023-06-22T10:47:59;31.30;99.90
4435;DHT22;46552;52.150;8.428;2023-06-22T10:50:28;31.00;99.30
4435;DHT22;46552;52.150;8.428;2023-06-22T10:52:55;30.80;96.40
4435;DHT22;46552;52.150;8.428;2023-06-22T10:55:22;30.90;99.90
4435;DHT22;46552;52.150;8.428;2023-06-22T10:57:49;30.80;99.90
4435;DHT22;46552;52.150;8.428;2023-06-22T11:00:18;30.50;99.90
4435;DHT22;46552;52.150;8.428;2023-06-22T11:02:45;30.70;99.90
4435;DHT22;46552;52.150;8.428;2023-06-22T11:07:43;30.90;99.60
4435;DHT22;46552;52.150;8.428;2023-06-22T11:10:10;31.40;99.10
4435;DHT22;46552;52.150;8.428;2023-06-22T11:12:37;32.60;99.10
4435;DHT22;46552;52.150;8.428;2023-06-22T11:15:05;31.70;95.20
4435;DHT22;46552;52.150;8.428;2023-06-22T11:20:00;31.50;98.20
4435;DHT22;46552;52.150;8.428;2023-06-22T11:22:30;31.50;97.00
4435;DHT22;46552;52.150;8.428;2023-06-22T11:25:00;31.50;98.70
4435;DHT22;46552;52.150;8.428;2023-06-22T11:27:28;31.50;97.40
4435;DHT22;46552;52.150;8.428;2023-06-22T11:29:56;31.50;99.00
4435;DHT22;46552;52.150;8.428;2023-06-22T11:32:23;31.30;98.30
4435;DHT22;46552;52.150;8.428;2023-06-22T11:37:18;31.30;95.10
4435;DHT22;46552;52.150;8.428;2023-06-22T11:39:45;31.20;98.30
4435;DHT22;46552;52.150;8.428;2023-06-22T11:42:15;31.60;96.00
4435;DHT22;46552;52.150;8.428;2023-06-22T11:44:42;31.40;98.50
4435;DHT22;46552;52.150;8.428;2023-06-22T11:47:10;31.60;98.40
4435;DHT22;46552;52.150;8.428;2023-06-22T11:49:37;31.40;98.40
4435;DHT22;46552;52.150;8.428;2023-06-22T11:52:06;31.20;98.60
4435;DHT22;46552;52.150;8.428;2023-06-22T11:54:33;31.20;98.70
4435;DHT22;46552;52.150;8.428;2023-06-22T11:57:00;31.10;98.90
4435;DHT22;46552;52.150;8.428;2023-06-22T11:59:29;31.00;95.30
4435;DHT22;46552;52.150;8.428;2023-06-22T12:01:57;30.80;98.90
4435;DHT22;46552;52.150;8.428;2023-06-22T12:04:26;30.80;99.20
4435;DHT22;46552;52.150;8.428;2023-06-22T12:06:53;30.30;97.40
4435;DHT22;46552;52.150;8.428;2023-06-22T12:11:49;30.70;95.90
4435;DHT22;46552;52.150;8.428;2023-06-22T12:14:16;30.50;99.50
4435;DHT22;46552;52.150;8.428;2023-06-22T12:16:44;31.10;95.80
4435;DHT22;46552;52.150;8.428;2023-06-22T12:19:11;30.80;99.10
4435;DHT22;46552;52.150;8.428;2023-06-22T12:21:38;31.00;98.20
4435;DHT22;46552;52.150;8.428;2023-06-22T12:24:06;30.90;99.00
4435;DHT22;46552;52.150;8.428;2023-06-22T12:26:33;31.20;98.70
4435;DHT22;46552;52.150;8.428;2023-06-22T12:29:00;31.20;99.10
4435;DHT22;46552;52.150;8.428;2023-06-22T12:31:27;31.10;99.30
4435;DHT22;46552;52.150;8.428;2023-06-22T12:33:56;30.60;97.10
4435;DHT22;46552;52.150;8.428;2023-06-22T12:36:24;30.40;95.80
4435;DHT22;46552;52.150;8.428;2023-06-22T12:41:18;30.00;97.80
4435;DHT22;46552;52.150;8.428;2023-06-22T12:43:46;29.80;96.20
4435;DHT22;46552;52.150;8.428;2023-06-22T12:46:14;29.60;99.70
4435;DHT22;46552;52.150;8.428;2023-06-22T12:48:43;29.50;99.90
4435;DHT22;46552;52.150;8.428;2023-06-22T12:51:12;29.50;99.90
4435;DHT22;46552;52.150;8.428;2023-06-22T12:53:40;29.30;99.90
4435;DHT22;46552;52.150;8.428;2023-06-22T12:56:08;29.00;99.60
4435;DHT22;46552;52.150;8.428;2023-06-22T12:58:36;28.80;99.90
4435;DHT22;46552;52.150;8.428;2023-06-22T13:05:58;28.30;99.90
4435;DHT22;46552;52.150;8.428;2023-06-22T13:08:26;27.70;99.90
4435;DHT22;46552;52.150;8.428;2023-06-22T13:10:55;27.80;99.90
4435;DHT22;46552;52.150;8.428;2023-06-22T13:13:23;27.60;99.90
4435;DHT22;46552;52.150;8.428;2023-06-22T13:15:51;27.80;99.90
4435;DHT22;46552;52.150;8.428;2023-06-22T13:18:20;27.50;99.90
4435;DHT22;46552;52.150;8.428;2023-06-22T13:20:47;27.40;99.90
4435;DHT22;46552;52.150;8.428;2023-06-22T13:23:14;27.20;99.90
4435;DHT22;46552;52.150;8.428;2023-06-22T13:25:43;27.00;99.90
4435;DHT22;46552;52.150;8.428;2023-06-22T13:33:06;26.90;99.90
4435;DHT22;46552;52.150;8.428;2023-06-22T13:35:34;26.60;99.90
4435;DHT22;46552;52.150;8.428;2023-06-22T13:38:02;26.40;99.90
4435;DHT22;46552;52.150;8.428;2023-06-22T13:42:58;26.10;99.90
4435;DHT22;46552;52.150;8.428;2023-06-22T13:45:26;25.90;99.90
4435;DHT22;46552;52.150;8.428;2023-06-22T13:50:21;25.70;99.90
4435;DHT22;46552;52.150;8.428;2023-06-22T13:52:48;25.60;99.90
4435;DHT22;46552;52.150;8.428;2023-06-22T13:57:43;25.30;99.90
4435;DHT22;46552;52.150;8.428;2023-06-22T14:00:13;25.40;99.90
4435;DHT22;46552;52.150;8.428;2023-06-22T14:05:08;25.10;99.90
4435;DHT22;46552;52.150;8.428;2023-06-22T14:07:36;25.00;99.90
4435;DHT22;46552;52.150;8.428;2023-06-22T14:10:05;24.90;99.90
4435;DHT22;46552;52.150;8.428;2023-06-22T14:17:28;24.80;99.90
4435;DHT22;46552;52.150;8.428;2023-06-22T14:19:55;24.90;99.90
4435;DHT22;46552;52.150;8.428;2023-06-22T14:22:23;24.90;99.90
4435;DHT22;46552;52.150;8.428;2023-06-22T14:24:50;24.80;99.90
4435;DHT22;46552;52.150;8.428;2023-06-22T14:27:17;24.80;99.90
4435;DHT22;46552;52.150;8.428;2023-06-22T14:29:44;24.90;99.90
4435;DHT22;46552;52.150;8.428;2023-06-22T14:32:11;24.80;99.90
4435;DHT22;46552;52.150;8.428;2023-06-22T14:34:41;24.80;99.90
4435;DHT22;46552;52.150;8.428;2023-06-22T14:37:09;24.70;99.90
4435;DHT22;46552;52.150;8.428;2023-06-22T14:39:37;24.90;99.90
4435;DHT22;46552;52.150;8.428;2023-06-22T14:42:05;24.90;99.90
4435;DHT22;46552;52.150;8.428;2023-06-22T14:44:33;24.80;99.90
4435;DHT22;46552;52.150;8.428;2023-06-22T14:47:00;24.90;99.90
4435;DHT22;46552;52.150;8.428;2023-06-22T14:49:28;24.80;99.90
4435;DHT22;46552;52.150;8.428;2023-06-22T14:51:58;24.90;99.90
4435;DHT22;46552;52.150;8.428;2023-06-22T14:54:25;25.10;99.90
4435;DHT22;46552;52.150;8.428;2023-06-22T14:59:20;25.10;99.90
4435;DHT22;46552;52.150;8.428;2023-06-22T15:01:47;24.90;99.90
4435;DHT22;46552;52.150;8.428;2023-06-22T15:04:15;24.70;99.90
4435;DHT22;46552;52.150;8.428;2023-06-22T15:06:42;24.90;99.90
4435;DHT22;46552;52.150;8.428;2023-06-22T15:09:11;24.80;99.90
4435;DHT22;46552;52.150;8.428;2023-06-22T15:11:38;24.80;99.90
4435;DHT22;46552;52.150;8.428;2023-06-22T15:14:06;24.90;99.90
4435;DHT22;46552;52.150;8.428;2023-06-22T15:16:33;24.90;99.90
4435;DHT22;46552;52.150;8.428;2023-06-22T15:19:01;24.90;99.90
4435;DHT22;46552;52.150;8.428;2023-06-22T15:21:28;24.80;99.90
4435;DHT22;46552;52.150;8.428;2023-06-22T15:23:56;24.90;99.90
4435;DHT22;46552;52.150;8.428;2023-06-22T15:26:25;24.90;99.90
4435;DHT22;46552;52.150;8.428;2023-06-22T15:31:20;24.90;99.90
4435;DHT22;46552;52.150;8.428;2023-06-22T15:33:48;25.00;99.90
4435;DHT22;46552;52.150;8.428;2023-06-22T15:36:15;24.90;99.90
4435;DHT22;46552;52.150;8.428;2023-06-22T15:38:42;25.00;99.90
4435;DHT22;46552;52.150;8.428;2023-06-22T15:41:09;24.90;99.90
4435;DHT22;46552;52.150;8.428;2023-06-22T15:43:38;24.90;99.90
4435;DHT22;46552;52.150;8.428;2023-06-22T15:46:05;24.90;99.90
4435;DHT22;46552;52.150;8.428;2023-06-22T15:48:33;24.90;99.90
4435;DHT22;46552;52.150;8.428;2023-06-22T15:51:00;25.10;99.90
4435;DHT22;46552;52.150;8.428;2023-06-22T15:53:27;25.10;99.90
4435;DHT22;46552;52.150;8.428;2023-06-22T15:55:55;25.20;99.90
4435;DHT22;46552;52.150;8.428;2023-06-22T15:58:22;25.30;99.90
4435;DHT22;46552;52.150;8.428;2023-06-22T16:00:51;25.30;99.90
4435;DHT22;46552;52.150;8.428;2023-06-22T16:03:18;25.20;99.90
4435;DHT22;46552;52.150;8.428;2023-06-22T16:05:46;25.40;99.90
4435;DHT22;46552;52.150;8.428;2023-06-22T16:08:13;25.40;99.90
4435;DHT22;46552;52.150;8.428;2023-06-22T16:10:40;25.50;99.90
4435;DHT22;46552;52.150;8.428;2023-06-22T16:13:08;25.50;99.90
4435;DHT22;46552;52.150;8.428;2023-06-22T16:15:35;25.20;99.90
4435;DHT22;46552;52.150;8.428;2023-06-22T16:18:04;25.40;99.90
4435;DHT22;46552;52.150;8.428;2023-06-22T16:23:00;25.40;99.90
4435;DHT22;46552;52.150;8.428;2023-06-22T16:25:28;25.40;99.90
4435;DHT22;46552;52.150;8.428;2023-06-22T16:30:22;25.20;99.90
4435;DHT22;46552;52.150;8.428;2023-06-22T16:32:51;25.20;99.90
4435;DHT22;46552;52.150;8.428;2023-06-22T16:35:20;25.10;99.90
4435;DHT22;46552;52.150;8.428;2023-06-22T16:37:48;25.10;99.90
4435;DHT22;46552;52.150;8.428;2023-06-22T16:40:16;25.10;99.90
4435;DHT22;46552;52.150;8.428;2023-06-22T16:42:46;25.10;99.90
4435;DHT22;46552;52.150;8.428;2023-06-22T16:50:09;24.70;99.90
4435;DHT22;46552;52.150;8.428;2023-06-22T16:52:38;24.80;99.90
4435;DHT22;46552;52.150;8.428;2023-06-22T16:55:06;24.50;99.90
4435;DHT22;46552;52.150;8.428;2023-06-22T16:57:33;24.50;99.90
4435;DHT22;46552;52.150;8.428;2023-06-22T17:00:00;24.50;99.90
4435;DHT22;46552;52.150;8.428;2023-06-22T17:02:28;22.80;99.90
4435;DHT22;46552;52.150;8.428;2023-06-22T17:04:58;24.30;99.90
4435;DHT22;46552;52.150;8.428;2023-06-22T17:07:26;24.30;99.90
4435;DHT22;46552;52.150;8.428;2023-06-22T17:09:56;24.30;99.90
4435;DHT22;46552;52.150;8.428;2023-06-22T17:12:25;24.20;99.90
4435;DHT22;46552;52.150;8.428;2023-06-22T17:14:53;24.60;99.90
4435;DHT22;46552;52.150;8.428;2023-06-22T17:19:50;24.00;99.90
4435;DHT22;46552;52.150;8.428;2023-06-22T17:22:17;24.00;99.90
4435;DHT22;46552;52.150;8.428;2023-06-22T17:24:45;23.80;99.90
4435;DHT22;46552;52.150;8.428;2023-06-22T17:27:14;23.80;99.90
4435;DHT22;46552;52.150;8.428;2023-06-22T17:29:42;24.50;99.90
4435;DHT22;46552;52.150;8.428;2023-06-22T17:34:37;23.60;99.90
4435;DHT22;46552;52.150;8.428;2023-06-22T17:41:59;23.60;99.90
4435;DHT22;46552;52.150;8.428;2023-06-22T17:44:28;23.50;99.90
4435;DHT22;46552;52.150;8.428;2023-06-22T17:46:56;23.60;99.90
4435;DHT22;46552;52.150;8.428;2023-06-22T17:49:26;23.60;99.90
4435;DHT22;46552;52.150;8.428;2023-06-22T17:51:55;23.70;99.90
4435;DHT22;46552;52.150;8.428;2023-06-22T17:54:22;23.50;99.90
4435;DHT22;46552;52.150;8.428;2023-06-22T18:01:47;23.50;99.90
4435;DHT22;46552;52.150;8.428;2023-06-22T18:04:16;23.50;99.90
4435;DHT22;46552;52.150;8.428;2023-06-22T18:06:46;23.50;99.90
4435;DHT22;46552;52.150;8.428;2023-06-22T18:09:15;23.50;99.90
4435;DHT22;46552;52.150;8.428;2023-06-22T18:11:44;23.40;99.90
4435;DHT22;46552;52.150;8.428;2023-06-22T18:14:14;23.30;99.90
4435;DHT22;46552;52.150;8.428;2023-06-22T18:16:44;23.30;99.90
4435;DHT22;46552;52.150;8.428;2023-06-22T18:19:12;23.30;99.90
4435;DHT22;46552;52.150;8.428;2023-06-22T18:24:07;23.10;99.90
4435;DHT22;46552;52.150;8.428;2023-06-22T18:26:36;23.10;99.90
4435;DHT22;46552;52.150;8.428;2023-06-22T18:29:05;23.20;99.90
4435;DHT22;46552;52.150;8.428;2023-06-22T18:31:34;23.20;99.90
4435;DHT22;46552;52.150;8.428;2023-06-22T18:34:01;23.30;99.90
4435;DHT22;46552;52.150;8.428;2023-06-22T18:36:35;23.20;99.90
4435;DHT22;46552;52.150;8.428;2023-06-22T18:39:05;23.10;99.90
4435;DHT22;46552;52.150;8.428;2023-06-22T18:41:35;23.20;99.90
4435;DHT22;46552;52.150;8.428;2023-06-22T18:44:03;23.10;99.90
4435;DHT22;46552;52.150;8.428;2023-06-22T18:46:35;23.00;99.90
4435;DHT22;46552;52.150;8.428;2023-06-22T18:49:12;23.00;99.90
4435;DHT22;46552;52.150;8.428;2023-06-22T18:51:51;22.90;99.90
4435;DHT22;46552;52.150;8.428;2023-06-22T18:54:21;23.00;99.90
4435;DHT22;46552;52.150;8.428;2023-06-22T18:56:52;23.00;99.90
4435;DHT22;46552;52.150;8.428;2023-06-22T18:59:47;23.00;99.90
4435;DHT22;46552;52.150;8.428;2023-06-22T19:02:34;23.00;99.90
4435;DHT22;46552;52.150;8.428;2023-06-22T19:05:09;22.90;99.90
4435;DHT22;46552;52.150;8.428;2023-06-22T19:07:58;23.00;99.90
4435;DHT22;46552;52.150;8.428;2023-06-22T19:12:58;22.90;99.90
4435;DHT22;46552;52.150;8.428;2023-06-22T19:15:30;22.90;99.90
4435;DHT22;46552;52.150;8.428;2023-06-22T19:18:00;22.80;99.90
4435;DHT22;46552;52.150;8.428;2023-06-22T19:20:32;22.80;99.90
4435;DHT22;46552;52.150;8.428;2023-06-22T19:23:01;22.80;99.90
4435;DHT22;46552;52.150;8.428;2023-06-22T19:25:29;22.70;99.90
4435;DHT22;46552;52.150;8.428;2023-06-22T19:27:59;22.70;99.90
4435;DHT22;46552;52.150;8.428;2023-06-22T19:30:28;22.70;99.90
4435;DHT22;46552;52.150;8.428;2023-06-22T19:32:56;22.60;99.90
4435;DHT22;46552;52.150;8.428;2023-06-22T19:35:26;22.60;99.90
4435;DHT22;46552;52.150;8.428;2023-06-22T19:37:55;22.60;99.90
4435;DHT22;46552;52.150;8.428;2023-06-22T19:40:23;22.60;99.90
4435;DHT22;46552;52.150;8.428;2023-06-22T19:42:53;22.60;99.90
4435;DHT22;46552;52.150;8.428;2023-06-22T19:45:22;22.70;99.90
4435;DHT22;46552;52.150;8.428;2023-06-22T19:50:17;22.40;99.90
4435;DHT22;46552;52.150;8.428;2023-06-22T19:52:46;22.40;99.90
4435;DHT22;46552;52.150;8.428;2023-06-22T19:55:14;22.60;99.90
4435;DHT22;46552;52.150;8.428;2023-06-22T19:57:44;22.40;99.90
4435;DHT22;46552;52.150;8.428;2023-06-22T20:00:13;22.40;99.90
4435;DHT22;46552;52.150;8.428;2023-06-22T20:02:50;22.30;99.90
4435;DHT22;46552;52.150;8.428;2023-06-22T20:05:20;22.30;99.90
4435;DHT22;46552;52.150;8.428;2023-06-22T20:07:47;22.30;99.90
4435;DHT22;46552;52.150;8.428;2023-06-22T20:10:18;22.20;99.90
4435;DHT22;46552;52.150;8.428;2023-06-22T20:12:50;22.30;99.90
4435;DHT22;46552;52.150;8.428;2023-06-22T20:15:19;22.30;99.90
4435;DHT22;46552;52.150;8.428;2023-06-22T20:17:53;22.30;99.90
4435;DHT22;46552;52.150;8.428;2023-06-22T20:20:21;22.30;99.90
4435;DHT22;46552;52.150;8.428;2023-06-22T20:22:49;22.30;99.90
4435;DHT22;46552;52.150;8.428;2023-06-22T20:25:21;22.20;99.90
4435;DHT22;46552;52.150;8.428;2023-06-22T20:27:50;22.30;99.90
4435;DHT22;46552;52.150;8.428;2023-06-22T20:30:19;22.10;99.90
4435;DHT22;46552;52.150;8.428;2023-06-22T20:32:47;22.20;99.90
4435;DHT22;46552;52.150;8.428;2023-06-22T20:35:16;22.10;99.90
4435;DHT22;46552;52.150;8.428;2023-06-22T20:40:12;22.10;99.90
4435;DHT22;46552;52.150;8.428;2023-06-22T20:42:40;22.20;99.90
4435;DHT22;46552;52.150;8.428;2023-06-22T20:45:10;22.10;99.90
4435;DHT22;46552;52.150;8.428;2023-06-22T20:47:37;22.20;99.90
4435;DHT22;46552;52.150;8.428;2023-06-22T20:50:07;22.10;99.90
4435;DHT22;46552;52.150;8.428;2023-06-22T20:55:02;22.00;99.90
4435;DHT22;46552;52.150;8.428;2023-06-22T20:57:29;21.90;99.90
4435;DHT22;46552;52.150;8.428;2023-06-22T21:02:27;22.00;99.90
4435;DHT22;46552;52.150;8.428;2023-06-22T21:12:16;21.90;99.90
4435;DHT22;46552;52.150;8.428;2023-06-22T21:14:44;21.90;99.90
4435;DHT22;46552;52.150;8.428;2023-06-22T21:17:11;21.90;99.90
4435;DHT22;46552;52.150;8.428;2023-06-22T21:22:07;21.90;99.90
4435;DHT22;46552;52.150;8.428;2023-06-22T21:27:03;22.20;99.90
4435;DHT22;46552;52.150;8.428;2023-06-22T21:29:30;21.90;99.90
4435;DHT22;46552;52.150;8.428;2023-06-22T21:31:57;21.90;99.90
4435;DHT22;46552;52.150;8.428;2023-06-22T21:36:54;21.90;99.90
4435;DHT22;46552;52.150;8.428;2023-06-22T21:39:21;21.80;99.90
4435;DHT22;46552;52.150;8.428;2023-06-22T21:44:15;21.70;99.90
4435;DHT22;46552;52.150;8.428;2023-06-22T21:46:43;21.80;99.90
4435;DHT22;46552;52.150;8.428;2023-06-22T21:51:39;21.60;99.90
4435;DHT22;46552;52.150;8.428;2023-06-22T21:54:09;21.80;99.90
4435;DHT22;46552;52.150;8.428;2023-06-22T22:01:32;21.70;99.90
4435;DHT22;46552;52.150;8.428;2023-06-22T22:06:27;21.80;99.90
4435;DHT22;46552;52.150;8.428;2023-06-22T22:08:54;21.50;99.90
4435;DHT22;46552;52.150;8.428;2023-06-22T22:11:24;21.70;99.90
4435;DHT22;46552;52.150;8.428;2023-06-22T22:13:51;21.60;99.90
4435;DHT22;46552;52.150;8.428;2023-06-22T22:16:18;21.70;99.90